createdAt,value
2023-03-07T00:00:21.209Z,13.40
2023-03-07T00:02:53.228Z,9.53
2023-03-07T00:05:23.143Z,16.63
2023-03-07T00:07:53.420Z,16.77
2023-03-07T00:10:22.380Z,16.63
2023-03-07T00:12:51.327Z,12.40
2023-03-07T00:15:20.099Z,11.00
2023-03-07T00:17:49.040Z,11.67
2023-03-07T00:20:18.118Z,14.60
2023-03-07T00:22:47.671Z,10.07
2023-03-07T00:25:18.086Z,13.93
2023-03-07T00:27:46.859Z,12.10
2023-03-07T00:30:15.898Z,8.43
2023-03-07T00:32:44.741Z,11.37
2023-03-07T00:35:13.613Z,10.27
2023-03-07T00:37:42.427Z,9.23
2023-03-07T00:40:12.634Z,10.10
2023-03-07T00:42:42.976Z,9.93
2023-03-07T00:45:13.826Z,10.90
2023-03-07T00:47:42.756Z,11.57
2023-03-07T00:50:12.502Z,13.93
2023-03-07T00:52:41.420Z,11.70
2023-03-07T00:55:11.325Z,10.93
2023-03-07T00:57:42.783Z,10.97
2023-03-07T01:00:13.217Z,10.30
2023-03-07T01:02:42.095Z,11.67
2023-03-07T01:05:11.473Z,12.83
2023-03-07T01:07:40.269Z,11.90
2023-03-07T01:10:09.764Z,13.47
2023-03-07T01:12:38.610Z,11.77
2023-03-07T01:15:10.085Z,11.57
2023-03-07T01:17:39.930Z,9.23
2023-03-07T01:20:10.548Z,9.53
2023-03-07T01:22:39.515Z,11.73
2023-03-07T01:25:09.301Z,12.50
2023-03-07T01:27:38.072Z,10.80
2023-03-07T01:30:10.278Z,10.20
2023-03-07T01:32:40.079Z,10.00
2023-03-07T01:35:09.290Z,8.60
2023-03-07T01:37:37.744Z,11.87
2023-03-07T01:40:10.363Z,10.43
2023-03-07T01:42:38.854Z,10.73
2023-03-07T01:45:25.171Z,10.83
2023-03-07T01:47:53.568Z,11.23
2023-03-07T01:50:22.060Z,8.23
2023-03-07T01:52:53.690Z,8.40
2023-03-07T01:55:27.484Z,6.97
2023-03-07T01:58:05.547Z,11.97
2023-03-07T02:00:38.586Z,14.43
2023-03-07T02:03:12.520Z,8.53
2023-03-07T02:05:48.786Z,9.83
2023-03-07T02:08:19.800Z,11.03
2023-03-07T02:10:49.228Z,12.80
2023-03-07T02:13:18.262Z,8.93
2023-03-07T02:15:50.332Z,10.93
2023-03-07T02:18:24.874Z,9.37
2023-03-07T02:21:01.024Z,9.63
2023-03-07T02:23:40.824Z,11.90
2023-03-07T02:26:16.050Z,10.70
2023-03-07T02:28:47.269Z,13.23
2023-03-07T02:31:16.407Z,8.40
2023-03-07T02:33:44.774Z,8.77
2023-03-07T02:36:17.388Z,9.33
2023-03-07T02:38:59.079Z,12.43
2023-03-07T02:41:31.468Z,9.93
2023-03-07T02:44:04.466Z,8.50
2023-03-07T02:46:33.197Z,10.43
2023-03-07T02:49:01.629Z,11.87
2023-03-07T02:51:30.145Z,10.93
2023-03-07T02:54:00.770Z,10.07
2023-03-07T02:56:29.564Z,9.73
2023-03-07T02:58:57.917Z,9.60
2023-03-07T03:01:27.921Z,11.03
2023-03-07T03:03:57.186Z,11.53
2023-03-07T03:06:26.567Z,9.53
2023-03-07T03:08:54.952Z,11.07
2023-03-07T03:11:23.736Z,9.70
2023-03-07T03:13:52.368Z,10.27
2023-03-07T03:16:21.241Z,12.13
2023-03-07T03:18:51.042Z,10.00
2023-03-07T03:21:20.496Z,8.03
2023-03-07T03:23:48.883Z,10.73
2023-03-07T03:26:17.334Z,11.67
2023-03-07T03:28:45.867Z,9.67
2023-03-07T03:31:15.548Z,11.43
2023-03-07T03:33:44.895Z,8.03
2023-03-07T03:36:18.415Z,7.73
2023-03-07T03:38:50.169Z,8.77
2023-03-07T03:41:18.684Z,11.93
2023-03-07T03:43:49.628Z,11.20
2023-03-07T03:46:20.539Z,15.87
2023-03-07T03:48:53.530Z,15.27
2023-03-07T03:51:26.175Z,10.33
2023-03-07T03:53:57.723Z,18.53
2023-03-07T03:56:28.080Z,14.73
2023-03-07T03:58:58.122Z,9.40
2023-03-07T04:01:28.428Z,9.77
2023-03-07T04:03:59.397Z,9.33
2023-03-07T04:06:32.328Z,10.03
2023-03-07T04:09:02.456Z,11.27
2023-03-07T04:11:32.719Z,10.13
2023-03-07T04:14:01.240Z,13.53
2023-03-07T04:16:30.170Z,10.43
2023-03-07T04:18:59.361Z,11.03
2023-03-07T04:21:29.277Z,10.17
2023-03-07T04:23:59.572Z,10.83
2023-03-07T04:26:31.622Z,10.90
2023-03-07T04:29:00.330Z,13.23
2023-03-07T04:31:48.989Z,10.80
2023-03-07T04:34:17.842Z,13.33
2023-03-07T04:36:47.593Z,13.63
2023-03-07T04:39:16.188Z,8.30
2023-03-07T04:41:45.935Z,12.97
2023-03-07T04:44:22.352Z,12.43
2023-03-07T04:46:50.747Z,12.77
2023-03-07T04:49:19.045Z,12.20
2023-03-07T04:51:49.038Z,10.03
2023-03-07T04:54:18.962Z,12.23
2023-03-07T04:56:49.153Z,10.73
2023-03-07T04:59:17.616Z,12.53
2023-03-07T05:01:47.452Z,14.37
2023-03-07T05:04:18.676Z,9.23
2023-03-07T05:06:48.829Z,12.87
2023-03-07T05:09:17.341Z,11.13
2023-03-07T05:11:47.204Z,11.75
2023-03-07T05:14:15.692Z,11.47
2023-03-07T05:16:44.257Z,13.33
2023-03-07T05:19:13.444Z,12.00
2023-03-07T05:21:44.259Z,11.07
2023-03-07T05:24:14.606Z,11.77
2023-03-07T05:26:43.690Z,13.53
2023-03-07T05:29:12.237Z,12.97
2023-03-07T05:31:40.628Z,10.90
2023-03-07T05:34:10.931Z,14.90
2023-03-07T05:36:40.439Z,9.30
2023-03-07T05:39:09.442Z,14.03
2023-03-07T05:41:39.457Z,14.03
2023-03-07T05:44:08.802Z,17.80
2023-03-07T05:46:37.439Z,10.93
2023-03-07T05:49:06.203Z,13.10
2023-03-07T05:51:34.707Z,12.23
2023-03-07T05:54:03.161Z,9.93
2023-03-07T05:56:31.866Z,9.97
2023-03-07T05:59:01.677Z,13.87
2023-03-07T06:01:30.205Z,13.07
2023-03-07T06:03:59.411Z,11.30
2023-03-07T06:06:27.833Z,8.53
2023-03-07T06:08:56.410Z,10.60
2023-03-07T06:11:24.978Z,12.57
2023-03-07T06:13:53.358Z,11.20
2023-03-07T06:16:23.504Z,11.73
2023-03-07T06:18:52.466Z,15.33
2023-03-07T06:21:20.862Z,12.37
2023-03-07T06:23:49.835Z,13.33
2023-03-07T06:26:21.407Z,14.03
2023-03-07T06:28:53.248Z,12.70
2023-03-07T06:31:24.222Z,13.53
2023-03-07T06:33:56.071Z,13.00
2023-03-07T06:36:26.430Z,19.73
2023-03-07T06:38:58.592Z,15.30
2023-03-07T06:41:27.371Z,17.17
2023-03-07T06:43:58.066Z,15.57
2023-03-07T06:46:30.871Z,16.17
2023-03-07T06:49:01.433Z,17.00
2023-03-07T06:51:30.200Z,13.30
2023-03-07T06:53:59.596Z,14.10
2023-03-07T06:56:30.599Z,13.20
2023-03-07T06:59:00.486Z,13.60
2023-03-07T07:01:30.353Z,13.63
2023-03-07T07:04:01.048Z,25.20
2023-03-07T07:06:30.907Z,32.20
2023-03-07T07:09:00.502Z,22.63
2023-03-07T07:11:33.886Z,13.10
2023-03-07T07:14:03.754Z,12.50
2023-03-07T07:16:36.541Z,16.07
2023-03-07T07:19:06.344Z,18.03
2023-03-07T07:21:36.528Z,14.40
2023-03-07T07:24:06.084Z,12.80
2023-03-07T07:26:34.707Z,15.73
2023-03-07T07:29:03.081Z,17.77
2023-03-07T07:31:31.761Z,18.27
2023-03-07T07:34:02.015Z,19.10
2023-03-07T07:36:33.076Z,16.97
2023-03-07T07:39:05.274Z,15.10
2023-03-07T07:41:35.626Z,13.10
2023-03-07T07:44:04.280Z,17.57
2023-03-07T07:46:46.137Z,13.70
2023-03-07T07:49:18.523Z,14.73
2023-03-07T07:51:47.194Z,16.40
2023-03-07T07:54:15.970Z,12.30
2023-03-07T07:56:44.510Z,16.00
2023-03-07T07:59:13.281Z,10.57
2023-03-07T08:01:41.721Z,10.57
2023-03-07T08:04:10.109Z,11.17
2023-03-07T08:06:39.876Z,11.70
2023-03-07T08:09:08.617Z,22.43
2023-03-07T08:11:37.136Z,11.63
2023-03-07T08:14:05.549Z,17.07
2023-03-07T08:16:34.025Z,18.20
2023-03-07T08:19:02.582Z,16.03
2023-03-07T08:21:31.028Z,14.27
2023-03-07T08:24:02.576Z,12.50
2023-03-07T08:26:30.998Z,13.73
2023-03-07T08:28:59.652Z,11.73
2023-03-07T08:31:28.467Z,14.67
2023-03-07T08:33:56.909Z,14.63
2023-03-07T08:36:25.487Z,14.70
2023-03-07T08:38:54.374Z,12.50
2023-03-07T08:41:24.748Z,13.87
2023-03-07T08:43:54.575Z,12.03
2023-03-07T08:46:23.678Z,11.70
2023-03-07T08:48:52.122Z,13.13
2023-03-07T08:51:20.837Z,13.30
2023-03-07T08:53:49.380Z,13.87
2023-03-07T08:56:19.974Z,14.87
2023-03-07T08:58:49.813Z,12.23
2023-03-07T09:01:19.733Z,10.37
2023-03-07T09:03:48.316Z,12.37
2023-03-07T09:06:19.049Z,12.90
2023-03-07T09:08:48.582Z,14.63
2023-03-07T09:11:18.810Z,16.07
2023-03-07T09:13:52.456Z,16.13
2023-03-07T09:16:23.575Z,16.97
2023-03-07T09:18:52.196Z,14.97
2023-03-07T09:21:20.655Z,13.00
2023-03-07T09:23:49.186Z,12.43
2023-03-07T09:26:17.982Z,15.33
2023-03-07T09:28:46.657Z,14.53
2023-03-07T09:31:16.894Z,13.47
2023-03-07T09:33:47.152Z,14.93
2023-03-07T09:36:18.162Z,13.97
2023-03-07T09:38:47.150Z,17.87
2023-03-07T09:41:31.868Z,15.33
2023-03-07T09:44:07.885Z,14.17
2023-03-07T09:47:11.931Z,12.57
2023-03-07T09:49:48.030Z,16.33
2023-03-07T09:52:19.669Z,13.90
2023-03-07T09:54:54.638Z,18.83
2023-03-07T09:57:27.514Z,16.30
2023-03-07T09:59:59.565Z,14.43
2023-03-07T10:02:30.732Z,19.30
2023-03-07T10:05:12.624Z,17.03
2023-03-07T10:07:42.987Z,20.17
2023-03-07T10:10:18.216Z,14.77
2023-03-07T10:13:01.014Z,16.40
2023-03-07T10:15:46.710Z,15.30
2023-03-07T10:18:28.993Z,14.30
2023-03-07T10:21:08.954Z,17.40
2023-03-07T10:23:59.116Z,14.07
2023-03-07T10:26:33.822Z,14.07
2023-03-07T10:29:11.942Z,13.80
2023-03-07T10:31:44.208Z,12.90
2023-03-07T10:34:26.790Z,13.83
2023-03-07T10:37:08.755Z,14.77
2023-03-07T10:39:44.792Z,15.60
2023-03-07T10:42:17.093Z,13.60
2023-03-07T10:44:48.440Z,14.27
2023-03-07T10:47:21.527Z,12.57
2023-03-07T10:49:54.045Z,10.87
2023-03-07T10:52:34.221Z,13.63
2023-03-07T10:55:35.116Z,11.93
2023-03-07T10:58:19.791Z,13.27
2023-03-07T11:00:59.885Z,13.23
2023-03-07T11:03:46.087Z,15.03
2023-03-07T11:06:33.090Z,15.33
2023-03-07T11:09:24.031Z,14.90
2023-03-07T11:11:55.789Z,15.83
2023-03-07T11:14:25.076Z,12.93
2023-03-07T11:16:57.608Z,13.13
2023-03-07T11:19:38.728Z,14.50
2023-03-07T11:22:20.055Z,16.77
2023-03-07T11:24:55.808Z,15.47
2023-03-07T11:27:27.025Z,15.37
2023-03-07T11:30:31.206Z,14.40
2023-03-07T11:33:16.984Z,14.30
2023-03-07T11:36:00.455Z,14.47
2023-03-07T11:38:50.053Z,14.23
2023-03-07T11:41:26.896Z,14.00
2023-03-07T11:44:06.328Z,19.30
2023-03-07T11:46:44.730Z,18.90
2023-03-07T11:49:26.035Z,13.27
2023-03-07T11:52:07.266Z,17.70
2023-03-07T11:54:49.594Z,14.43
2023-03-07T11:57:34.614Z,15.03
2023-03-07T12:00:25.010Z,15.47
2023-03-07T12:03:16.758Z,17.00
2023-03-07T12:06:04.666Z,16.83
2023-03-07T12:08:57.289Z,17.30
2023-03-07T12:11:37.214Z,14.50
2023-03-07T12:14:21.083Z,18.33
2023-03-07T12:16:56.976Z,17.30
2023-03-07T12:19:55.174Z,16.90
2023-03-07T12:22:29.130Z,13.13
2023-03-07T12:25:14.425Z,18.33
2023-03-07T12:27:47.033Z,17.03
2023-03-07T12:30:21.567Z,15.07
2023-03-07T12:32:52.382Z,16.57
2023-03-07T12:35:26.768Z,17.03
2023-03-07T12:38:05.569Z,16.77
2023-03-07T12:40:39.644Z,15.67
2023-03-07T12:43:16.163Z,17.20
2023-03-07T12:45:51.820Z,13.77
2023-03-07T12:48:28.544Z,20.87
2023-03-07T12:51:01.862Z,16.57
2023-03-07T12:53:37.368Z,15.70
2023-03-07T12:56:15.456Z,17.00
2023-03-07T12:58:50.318Z,16.27
2023-03-07T13:01:26.728Z,14.87
2023-03-07T13:04:03.720Z,17.97
2023-03-07T13:06:33.744Z,22.00
2023-03-07T13:09:04.208Z,25.63
2023-03-07T13:11:36.853Z,14.93
2023-03-07T13:14:06.297Z,17.73
2023-03-07T13:16:44.812Z,19.37
2023-03-07T13:19:51.835Z,16.57
2023-03-07T13:22:58.848Z,21.80
2023-03-07T13:25:56.491Z,16.27
2023-03-07T13:28:51.794Z,19.30
2023-03-07T13:31:46.793Z,16.17
2023-03-07T13:34:48.708Z,15.57
2023-03-07T13:37:57.053Z,16.33
2023-03-07T13:40:53.058Z,17.10
2023-03-07T13:43:57.127Z,14.80
2023-03-07T13:46:51.931Z,17.77
2023-03-07T13:49:45.490Z,17.17
2023-03-07T13:52:45.430Z,16.53
2023-03-07T13:55:24.212Z,17.20
2023-03-07T13:57:56.981Z,17.80
2023-03-07T14:00:31.952Z,15.07
2023-03-07T14:03:00.594Z,16.83
2023-03-07T14:05:33.385Z,17.17
2023-03-07T14:08:03.552Z,17.30
2023-03-07T14:10:33.232Z,18.97
2023-03-07T14:13:26.678Z,17.77
2023-03-07T14:16:16.911Z,14.50
2023-03-07T14:18:55.860Z,17.80
2023-03-07T14:21:35.588Z,19.80
2023-03-07T14:24:27.717Z,18.93
2023-03-07T14:26:58.684Z,15.00
2023-03-07T14:29:29.958Z,15.93
2023-03-07T14:32:01.019Z,18.23
2023-03-07T14:34:31.699Z,18.00
2023-03-07T14:37:04.543Z,17.00
2023-03-07T14:39:45.547Z,21.77
2023-03-07T14:42:24.541Z,17.70
2023-03-07T14:45:14.074Z,18.60
2023-03-07T14:48:07.736Z,16.80
2023-03-07T14:50:40.135Z,17.50
2023-03-07T14:53:18.038Z,23.50
2023-03-07T14:55:49.052Z,19.67
2023-03-07T14:58:19.973Z,18.90
2023-03-07T15:00:58.197Z,24.60
2023-03-07T15:03:26.972Z,20.67
2023-03-07T15:05:57.534Z,18.50
2023-03-07T15:08:30.572Z,20.00
2023-03-07T15:11:06.929Z,20.87
2023-03-07T15:13:39.414Z,20.13
2023-03-07T15:16:12.678Z,26.47
2023-03-07T15:18:45.057Z,21.47
2023-03-07T15:21:19.101Z,20.80
2023-03-07T15:23:55.459Z,20.70
2023-03-07T15:26:26.577Z,23.93
2023-03-07T15:29:01.196Z,25.03
2023-03-07T15:31:32.858Z,23.37
2023-03-07T15:34:12.757Z,29.17
2023-03-07T15:36:42.235Z,24.87
2023-03-07T15:39:33.226Z,24.30
2023-03-07T15:42:04.971Z,23.27
2023-03-07T15:44:35.004Z,21.33
2023-03-07T15:47:13.617Z,22.93
2023-03-07T15:49:45.313Z,23.47
2023-03-07T15:52:28.060Z,26.73
2023-03-07T15:55:01.060Z,27.53
2023-03-07T15:57:33.414Z,33.40
2023-03-07T16:00:04.902Z,31.40
2023-03-07T16:02:42.914Z,26.30
2023-03-07T16:05:34.174Z,32.27
2023-03-07T16:08:03.690Z,27.17
2023-03-07T16:10:33.795Z,24.77
2023-03-07T16:13:03.244Z,24.33
2023-03-07T16:15:31.837Z,23.30
2023-03-07T16:18:00.273Z,25.50
2023-03-07T16:20:30.026Z,21.10
2023-03-07T16:22:58.638Z,22.93
2023-03-07T16:25:32.245Z,25.07
2023-03-07T16:28:02.126Z,22.03
2023-03-07T16:30:33.262Z,24.90
2023-03-07T16:33:01.791Z,27.17
2023-03-07T16:35:30.580Z,23.47
2023-03-07T16:37:59.363Z,23.53
2023-03-07T16:40:28.608Z,27.50
2023-03-07T16:42:57.041Z,23.20
2023-03-07T16:45:28.939Z,26.00
2023-03-07T16:47:59.329Z,21.30
2023-03-07T16:50:29.814Z,24.00
2023-03-07T16:52:59.615Z,27.00
2023-03-07T16:55:34.431Z,23.17
2023-03-07T16:58:05.683Z,22.77
2023-03-07T17:00:35.679Z,30.63
2023-03-07T17:03:04.452Z,24.40
2023-03-07T17:05:33.361Z,22.70
2023-03-07T17:08:01.681Z,21.87
2023-03-07T17:10:30.317Z,24.40
2023-03-07T17:13:00.102Z,23.90
2023-03-07T17:15:31.680Z,25.43
2023-03-07T17:18:02.161Z,21.73
2023-03-07T17:20:31.191Z,21.93
2023-03-07T17:22:59.898Z,21.97
2023-03-07T17:25:29.164Z,25.33
2023-03-07T17:28:01.429Z,24.30
2023-03-07T17:30:31.827Z,24.43
2023-03-07T17:33:03.117Z,23.97
2023-03-07T17:35:31.644Z,23.33
2023-03-07T17:37:59.950Z,28.97
2023-03-07T17:40:28.603Z,27.27
2023-03-07T17:42:59.364Z,28.17
2023-03-07T17:45:27.961Z,32.77
2023-03-07T17:47:56.461Z,33.43
2023-03-07T17:50:26.447Z,26.40
2023-03-07T17:52:56.106Z,30.03
2023-03-07T17:55:26.211Z,28.03
2023-03-07T17:57:54.810Z,27.13
2023-03-07T18:00:23.942Z,26.47
2023-03-07T18:02:52.768Z,35.00
2023-03-07T18:05:21.271Z,30.07
2023-03-07T18:07:52.737Z,29.27
2023-03-07T18:10:21.437Z,29.63
2023-03-07T18:12:50.708Z,29.13
2023-03-07T18:15:21.795Z,28.10
2023-03-07T18:17:50.566Z,27.83
2023-03-07T18:20:20.522Z,27.40
2023-03-07T18:22:50.629Z,25.17
2023-03-07T18:25:20.374Z,24.97
2023-03-07T18:27:48.903Z,29.50
2023-03-07T18:30:18.000Z,34.70
2023-03-07T18:32:46.531Z,24.93
2023-03-07T18:35:16.827Z,26.53
2023-03-07T18:37:45.712Z,27.67
2023-03-07T18:40:15.938Z,21.63
2023-03-07T18:42:44.398Z,26.33
2023-03-07T18:45:13.756Z,22.67
2023-03-07T18:47:42.097Z,23.90
2023-03-07T18:50:12.125Z,21.30
2023-03-07T18:52:40.539Z,22.47
2023-03-07T18:55:11.091Z,22.13
2023-03-07T18:57:40.953Z,27.20
2023-03-07T19:00:11.590Z,24.13
2023-03-07T19:02:40.305Z,29.17
2023-03-07T19:05:11.653Z,31.47
2023-03-07T19:07:41.700Z,30.10
2023-03-07T19:10:11.594Z,30.90
2023-03-07T19:12:42.453Z,29.33
2023-03-07T19:15:11.618Z,28.47
2023-03-07T19:17:41.211Z,25.13
2023-03-07T19:20:11.019Z,25.23
2023-03-07T19:22:40.426Z,24.80
2023-03-07T19:25:11.037Z,23.77
2023-03-07T19:27:39.980Z,25.70
2023-03-07T19:30:12.762Z,28.17
2023-03-07T19:32:41.266Z,25.07
2023-03-07T19:35:10.130Z,29.93
2023-03-07T19:37:38.590Z,23.00
2023-03-07T19:40:08.719Z,25.60
2023-03-07T19:42:37.113Z,24.07
2023-03-07T19:45:07.226Z,29.50
2023-03-07T19:47:37.085Z,34.50
2023-03-07T19:50:06.043Z,28.70
2023-03-07T19:52:34.355Z,25.47
2023-03-07T19:55:02.730Z,27.43
2023-03-07T19:57:31.093Z,22.40
2023-03-07T19:59:59.477Z,26.33
2023-03-07T20:02:29.544Z,29.67
2023-03-07T20:05:00.267Z,27.33
2023-03-07T20:07:28.816Z,25.57
2023-03-07T20:09:57.350Z,25.10
2023-03-07T20:12:25.754Z,26.37
2023-03-07T20:14:54.222Z,22.27
2023-03-07T20:17:22.664Z,25.23
2023-03-07T20:19:53.056Z,29.73
2023-03-07T20:22:23.661Z,27.33
2023-03-07T20:24:52.742Z,26.40
2023-03-07T20:27:23.603Z,18.97
2023-03-07T20:29:52.380Z,19.67
2023-03-07T20:32:21.093Z,24.13
2023-03-07T20:34:52.672Z,21.73
2023-03-07T20:37:22.542Z,20.10
2023-03-07T20:39:51.013Z,21.27
2023-03-07T20:42:20.421Z,21.70
2023-03-07T20:44:49.741Z,28.37
2023-03-07T20:47:18.123Z,27.47
2023-03-07T20:49:47.839Z,24.27
2023-03-07T20:52:16.807Z,25.57
2023-03-07T20:54:47.059Z,30.17
2023-03-07T20:57:15.636Z,31.77
2023-03-07T20:59:44.077Z,28.03
2023-03-07T21:02:12.533Z,24.77
2023-03-07T21:04:40.862Z,21.70
2023-03-07T21:07:09.438Z,20.90
2023-03-07T21:09:37.962Z,20.33
2023-03-07T21:12:08.733Z,23.03
2023-03-07T21:14:37.200Z,26.13
2023-03-07T21:17:06.059Z,24.77
2023-03-07T21:19:34.514Z,24.27
2023-03-07T21:22:03.250Z,21.37
2023-03-07T21:24:31.651Z,27.03
2023-03-07T21:27:00.412Z,21.50
2023-03-07T21:29:31.263Z,24.20
2023-03-07T21:31:59.736Z,24.33
2023-03-07T21:34:28.050Z,20.90
2023-03-07T21:36:57.118Z,20.73
2023-03-07T21:39:25.809Z,27.17
2023-03-07T21:41:54.659Z,25.70
2023-03-07T21:44:23.171Z,18.37
2023-03-07T21:46:53.573Z,19.57
2023-03-07T21:49:21.915Z,16.80
2023-03-07T21:51:50.322Z,19.97
2023-03-07T21:54:18.925Z,16.07
2023-03-07T21:56:47.336Z,16.43
2023-03-07T21:59:15.685Z,16.60
2023-03-07T22:01:44.044Z,19.90
2023-03-07T22:04:14.016Z,17.90
2023-03-07T22:06:42.462Z,17.03
2023-03-07T22:09:10.872Z,16.03
2023-03-07T22:11:40.306Z,16.77
2023-03-07T22:14:08.773Z,17.37
2023-03-07T22:16:37.259Z,17.20
2023-03-07T22:19:05.796Z,16.80
2023-03-07T22:21:35.724Z,19.13
2023-03-07T22:24:04.132Z,22.33
2023-03-07T22:26:33.402Z,18.73
2023-03-07T22:29:02.838Z,21.00
2023-03-07T22:31:31.552Z,21.03
2023-03-07T22:34:01.054Z,18.30
2023-03-07T22:36:29.504Z,21.70
2023-03-07T22:38:59.302Z,22.93
2023-03-07T22:41:28.414Z,29.90
2023-03-07T22:43:56.851Z,25.80
2023-03-07T22:46:25.363Z,26.17
2023-03-07T22:48:54.986Z,24.13
2023-03-07T22:51:24.871Z,21.40
2023-03-07T22:53:53.734Z,19.40
2023-03-07T22:56:25.165Z,21.27
2023-03-07T22:58:53.541Z,20.40
2023-03-07T23:01:23.998Z,22.33
2023-03-07T23:03:54.598Z,26.00
2023-03-07T23:06:24.289Z,18.80
2023-03-07T23:08:54.450Z,18.93
2023-03-07T23:11:25.784Z,18.87
2023-03-07T23:13:55.126Z,18.80
2023-03-07T23:16:26.914Z,18.73
2023-03-07T23:18:58.413Z,18.63
2023-03-07T23:21:29.173Z,18.97
2023-03-07T23:23:58.124Z,16.60
2023-03-07T23:26:30.166Z,16.77
2023-03-07T23:28:58.809Z,18.80
2023-03-07T23:31:29.404Z,16.97
2023-03-07T23:33:58.686Z,15.27
2023-03-07T23:36:29.073Z,18.53
2023-03-07T23:38:58.044Z,16.77
2023-03-07T23:41:28.711Z,16.40
2023-03-07T23:43:59.213Z,15.23
2023-03-07T23:46:28.610Z,16.97
2023-03-07T23:48:57.829Z,17.07
2023-03-07T23:51:26.449Z,16.43
2023-03-07T23:53:54.925Z,16.53
2023-03-07T23:56:23.375Z,15.90
2023-03-07T23:58:53.401Z,15.70
